sensor_id;sensor_type;location;lat;lon;timestamp;temperature;humidity
80176;DHT22;75462;42.122;24.736;2024-02-15T00:00:41;8.90;51.20
80176;DHT22;75462;42.122;24.736;2024-02-15T00:03:10;9.00;51.20
80176;DHT22;75462;42.122;24.736;2024-02-15T00:05:39;8.90;52.20
80176;DHT22;75462;42.122;24.736;2024-02-15T00:08:05;8.90;51.50
80176;DHT22;75462;42.122;24.736;2024-02-15T00:10:32;8.90;51.20
80176;DHT22;75462;42.122;24.736;2024-02-15T00:12:58;9.00;51.20
80176;DHT22;75462;42.122;24.736;2024-02-15T00:15:24;8.90;51.40
80176;DHT22;75462;42.122;24.736;2024-02-15T00:17:50;8.80;51.40
80176;DHT22;75462;42.122;24.736;2024-02-15T00:20:17;8.80;51.70
80176;DHT22;75462;42.122;24.736;2024-02-15T00:22:43;8.80;51.60
80176;DHT22;75462;42.122;24.736;2024-02-15T00:25:09;8.80;51.40
80176;DHT22;75462;42.122;24.736;2024-02-15T00:27:37;8.80;51.50
80176;DHT22;75462;42.122;24.736;2024-02-15T00:30:03;8.80;51.40
80176;DHT22;75462;42.122;24.736;2024-02-15T00:32:30;8.80;51.40
80176;DHT22;75462;42.122;24.736;2024-02-15T00:34:56;8.80;51.30
80176;DHT22;75462;42.122;24.736;2024-02-15T00:37:22;8.70;51.50
80176;DHT22;75462;42.122;24.736;2024-02-15T00:39:47;8.80;51.40
80176;DHT22;75462;42.122;24.736;2024-02-15T00:42:13;8.80;51.50
80176;DHT22;75462;42.122;24.736;2024-02-15T00:44:41;8.80;51.60
80176;DHT22;75462;42.122;24.736;2024-02-15T00:47:07;8.80;51.40
80176;DHT22;75462;42.122;24.736;2024-02-15T00:49:33;8.80;51.30
80176;DHT22;75462;42.122;24.736;2024-02-15T00:51:59;8.70;51.40
80176;DHT22;75462;42.122;24.736;2024-02-15T00:54:25;8.70;51.60
80176;DHT22;75462;42.122;24.736;2024-02-15T00:56:51;8.70;51.80
80176;DHT22;75462;42.122;24.736;2024-02-15T00:59:17;8.70;51.60
80176;DHT22;75462;42.122;24.736;2024-02-15T01:01:43;8.60;51.80
80176;DHT22;75462;42.122;24.736;2024-02-15T01:04:10;8.60;51.80
80176;DHT22;75462;42.122;24.736;2024-02-15T01:06:36;8.60;52.00
80176;DHT22;75462;42.122;24.736;2024-02-15T01:09:02;8.60;51.80
80176;DHT22;75462;42.122;24.736;2024-02-15T01:11:29;8.70;51.80
80176;DHT22;75462;42.122;24.736;2024-02-15T01:13:57;8.60;51.60
80176;DHT22;75462;42.122;24.736;2024-02-15T01:16:23;8.60;51.80
80176;DHT22;75462;42.122;24.736;2024-02-15T01:18:50;8.60;52.00
80176;DHT22;75462;42.122;24.736;2024-02-15T01:21:16;8.60;51.60
80176;DHT22;75462;42.122;24.736;2024-02-15T01:23:42;8.60;51.80
80176;DHT22;75462;42.122;24.736;2024-02-15T01:26:09;8.60;51.80
80176;DHT22;75462;42.122;24.736;2024-02-15T01:28:37;8.60;52.00
80176;DHT22;75462;42.122;24.736;2024-02-15T01:31:03;8.60;52.30
80176;DHT22;75462;42.122;24.736;2024-02-15T01:33:29;8.50;52.40
80176;DHT22;75462;42.122;24.736;2024-02-15T01:35:54;8.50;52.50
80176;DHT22;75462;42.122;24.736;2024-02-15T01:38:20;8.50;52.30
80176;DHT22;75462;42.122;24.736;2024-02-15T01:40:47;8.50;52.50
80176;DHT22;75462;42.122;24.736;2024-02-15T01:43:13;8.50;52.60
80176;DHT22;75462;42.122;24.736;2024-02-15T01:45:39;8.40;52.50
80176;DHT22;75462;42.122;24.736;2024-02-15T01:48:05;8.30;52.60
80176;DHT22;75462;42.122;24.736;2024-02-15T01:50:33;8.30;52.80
80176;DHT22;75462;42.122;24.736;2024-02-15T01:53:01;8.30;52.90
80176;DHT22;75462;42.122;24.736;2024-02-15T01:55:27;8.20;53.10
80176;DHT22;75462;42.122;24.736;2024-02-15T01:57:53;8.20;52.90
80176;DHT22;75462;42.122;24.736;2024-02-15T02:00:19;8.20;52.90
80176;DHT22;75462;42.122;24.736;2024-02-15T02:02:45;8.20;52.80
80176;DHT22;75462;42.122;24.736;2024-02-15T02:05:11;8.20;52.80
80176;DHT22;75462;42.122;24.736;2024-02-15T02:07:37;8.20;52.80
80176;DHT22;75462;42.122;24.736;2024-02-15T02:10:03;8.20;53.00
80176;DHT22;75462;42.122;24.736;2024-02-15T02:12:29;8.10;53.10
80176;DHT22;75462;42.122;24.736;2024-02-15T02:14:56;8.00;52.90
80176;DHT22;75462;42.122;24.736;2024-02-15T02:17:22;8.10;52.80
80176;DHT22;75462;42.122;24.736;2024-02-15T02:19:48;8.00;52.90
80176;DHT22;75462;42.122;24.736;2024-02-15T02:22:16;8.00;53.10
80176;DHT22;75462;42.122;24.736;2024-02-15T02:25:07;8.10;53.10
80176;DHT22;75462;42.122;24.736;2024-02-15T02:27:36;8.00;53.10
80176;DHT22;75462;42.122;24.736;2024-02-15T02:30:11;8.00;52.70
80176;DHT22;75462;42.122;24.736;2024-02-15T02:32:41;7.90;53.00
80176;DHT22;75462;42.122;24.736;2024-02-15T02:35:07;8.00;52.60
80176;DHT22;75462;42.122;24.736;2024-02-15T02:37:33;8.00;52.70
80176;DHT22;75462;42.122;24.736;2024-02-15T02:40:03;7.90;53.00
80176;DHT22;75462;42.122;24.736;2024-02-15T02:42:29;7.90;53.00
80176;DHT22;75462;42.122;24.736;2024-02-15T02:44:54;7.80;53.30
80176;DHT22;75462;42.122;24.736;2024-02-15T02:47:20;7.80;53.60
80176;DHT22;75462;42.122;24.736;2024-02-15T02:49:47;7.80;53.40
80176;DHT22;75462;42.122;24.736;2024-02-15T02:52:12;7.80;53.40
80176;DHT22;75462;42.122;24.736;2024-02-15T02:54:38;7.70;53.30
80176;DHT22;75462;42.122;24.736;2024-02-15T02:57:03;7.70;53.30
80176;DHT22;75462;42.122;24.736;2024-02-15T02:59:32;7.80;53.30
80176;DHT22;75462;42.122;24.736;2024-02-15T03:01:58;7.70;53.60
80176;DHT22;75462;42.122;24.736;2024-02-15T03:04:24;7.70;53.80
80176;DHT22;75462;42.122;24.736;2024-02-15T03:06:49;7.60;53.90
80176;DHT22;75462;42.122;24.736;2024-02-15T03:09:16;7.70;53.60
80176;DHT22;75462;42.122;24.736;2024-02-15T03:11:42;7.70;53.50
80176;DHT22;75462;42.122;24.736;2024-02-15T03:14:08;7.70;53.60
80176;DHT22;75462;42.122;24.736;2024-02-15T03:16:34;7.70;53.60
80176;DHT22;75462;42.122;24.736;2024-02-15T03:18:59;7.80;53.50
80176;DHT22;75462;42.122;24.736;2024-02-15T03:21:30;7.70;53.80
80176;DHT22;75462;42.122;24.736;2024-02-15T03:23:55;7.70;53.60
80176;DHT22;75462;42.122;24.736;2024-02-15T03:26:31;7.70;53.50
80176;DHT22;75462;42.122;24.736;2024-02-15T03:29:06;7.70;53.50
80176;DHT22;75462;42.122;24.736;2024-02-15T03:31:35;7.70;53.40
80176;DHT22;75462;42.122;24.736;2024-02-15T03:34:03;7.70;53.40
80176;DHT22;75462;42.122;24.736;2024-02-15T03:36:29;7.90;53.00
80176;DHT22;75462;42.122;24.736;2024-02-15T03:38:55;7.90;52.90
80176;DHT22;75462;42.122;24.736;2024-02-15T03:41:21;7.80;52.80
80176;DHT22;75462;42.122;24.736;2024-02-15T03:43:47;7.80;53.00
80176;DHT22;75462;42.122;24.736;2024-02-15T03:46:13;7.80;53.00
80176;DHT22;75462;42.122;24.736;2024-02-15T03:48:42;7.80;53.00
80176;DHT22;75462;42.122;24.736;2024-02-15T03:51:16;7.80;52.80
80176;DHT22;75462;42.122;24.736;2024-02-15T03:53:42;7.80;52.80
80176;DHT22;75462;42.122;24.736;2024-02-15T03:56:08;7.80;53.00
80176;DHT22;75462;42.122;24.736;2024-02-15T03:58:34;7.80;53.00
80176;DHT22;75462;42.122;24.736;2024-02-15T04:01:02;7.80;53.00
80176;DHT22;75462;42.122;24.736;2024-02-15T04:03:30;7.80;53.20
80176;DHT22;75462;42.122;24.736;2024-02-15T04:05:57;7.80;53.20
80176;DHT22;75462;42.122;24.736;2024-02-15T04:08:23;7.80;53.40
80176;DHT22;75462;42.122;24.736;2024-02-15T04:10:49;7.80;53.00
80176;DHT22;75462;42.122;24.736;2024-02-15T04:13:15;7.80;53.00
80176;DHT22;75462;42.122;24.736;2024-02-15T04:15:40;7.80;53.10
80176;DHT22;75462;42.122;24.736;2024-02-15T04:18:07;7.80;53.10
80176;DHT22;75462;42.122;24.736;2024-02-15T04:20:33;7.80;53.30
80176;DHT22;75462;42.122;24.736;2024-02-15T04:22:59;7.90;53.10
80176;DHT22;75462;42.122;24.736;2024-02-15T04:25:25;7.90;53.00
80176;DHT22;75462;42.122;24.736;2024-02-15T04:27:53;7.80;53.00
80176;DHT22;75462;42.122;24.736;2024-02-15T04:30:20;7.80;52.80
80176;DHT22;75462;42.122;24.736;2024-02-15T04:32:46;7.80;52.80
80176;DHT22;75462;42.122;24.736;2024-02-15T04:35:12;7.80;52.50
80176;DHT22;75462;42.122;24.736;2024-02-15T04:37:38;7.80;52.40
80176;DHT22;75462;42.122;24.736;2024-02-15T04:40:04;7.80;52.30
80176;DHT22;75462;42.122;24.736;2024-02-15T04:42:38;7.80;53.50
80176;DHT22;75462;42.122;24.736;2024-02-15T04:45:06;7.80;53.00
80176;DHT22;75462;42.122;24.736;2024-02-15T04:47:41;7.80;53.00
80176;DHT22;75462;42.122;24.736;2024-02-15T04:50:07;7.80;53.00
80176;DHT22;75462;42.122;24.736;2024-02-15T04:52:34;7.80;52.90
80176;DHT22;75462;42.122;24.736;2024-02-15T04:55:01;7.80;52.80
80176;DHT22;75462;42.122;24.736;2024-02-15T04:57:26;7.80;52.80
80176;DHT22;75462;42.122;24.736;2024-02-15T04:59:55;7.80;53.10
80176;DHT22;75462;42.122;24.736;2024-02-15T05:02:21;7.80;52.70
80176;DHT22;75462;42.122;24.736;2024-02-15T05:04:50;7.80;52.80
80176;DHT22;75462;42.122;24.736;2024-02-15T05:07:21;7.80;52.80
80176;DHT22;75462;42.122;24.736;2024-02-15T05:09:51;7.80;52.80
80176;DHT22;75462;42.122;24.736;2024-02-15T05:12:24;7.90;52.30
80176;DHT22;75462;42.122;24.736;2024-02-15T05:14:50;8.00;52.40
80176;DHT22;75462;42.122;24.736;2024-02-15T05:17:16;8.00;52.20
80176;DHT22;75462;42.122;24.736;2024-02-15T05:19:42;8.10;52.00
80176;DHT22;75462;42.122;24.736;2024-02-15T05:22:07;8.10;52.20
80176;DHT22;75462;42.122;24.736;2024-02-15T05:24:33;8.00;52.40
80176;DHT22;75462;42.122;24.736;2024-02-15T05:26:59;8.10;52.30
80176;DHT22;75462;42.122;24.736;2024-02-15T05:29:26;8.00;52.20
80176;DHT22;75462;42.122;24.736;2024-02-15T05:31:53;8.00;52.30
80176;DHT22;75462;42.122;24.736;2024-02-15T05:34:20;8.00;52.40
80176;DHT22;75462;42.122;24.736;2024-02-15T05:36:46;8.00;52.20
80176;DHT22;75462;42.122;24.736;2024-02-15T05:39:13;8.00;52.20
80176;DHT22;75462;42.122;24.736;2024-02-15T05:41:40;8.00;52.30
80176;DHT22;75462;42.122;24.736;2024-02-15T05:44:05;8.10;52.10
80176;DHT22;75462;42.122;24.736;2024-02-15T05:46:34;8.10;52.00
80176;DHT22;75462;42.122;24.736;2024-02-15T05:49:03;8.00;52.00
80176;DHT22;75462;42.122;24.736;2024-02-15T05:51:30;8.10;51.90
80176;DHT22;75462;42.122;24.736;2024-02-15T05:53:56;8.10;52.10
80176;DHT22;75462;42.122;24.736;2024-02-15T05:56:24;8.00;52.30
80176;DHT22;75462;42.122;24.736;2024-02-15T05:58:52;8.00;52.30
80176;DHT22;75462;42.122;24.736;2024-02-15T06:01:18;8.00;52.40
80176;DHT22;75462;42.122;24.736;2024-02-15T06:03:43;8.10;52.40
80176;DHT22;75462;42.122;24.736;2024-02-15T06:06:10;8.10;52.00
80176;DHT22;75462;42.122;24.736;2024-02-15T06:08:37;8.20;52.00
80176;DHT22;75462;42.122;24.736;2024-02-15T06:11:04;8.10;52.20
80176;DHT22;75462;42.122;24.736;2024-02-15T06:13:31;8.10;52.40
80176;DHT22;75462;42.122;24.736;2024-02-15T06:15:57;8.00;52.50
80176;DHT22;75462;42.122;24.736;2024-02-15T06:18:27;8.10;52.40
80176;DHT22;75462;42.122;24.736;2024-02-15T06:20:58;8.00;52.60
80176;DHT22;75462;42.122;24.736;2024-02-15T06:23:25;8.10;52.50
80176;DHT22;75462;42.122;24.736;2024-02-15T06:25:53;8.10;52.40
80176;DHT22;75462;42.122;24.736;2024-02-15T06:28:20;8.10;52.30
80176;DHT22;75462;42.122;24.736;2024-02-15T06:31:09;8.10;52.40
80176;DHT22;75462;42.122;24.736;2024-02-15T06:33:54;8.10;52.10
80176;DHT22;75462;42.122;24.736;2024-02-15T06:36:50;8.20;52.50
80176;DHT22;75462;42.122;24.736;2024-02-15T06:39:34;8.20;52.30
80176;DHT22;75462;42.122;24.736;2024-02-15T06:42:11;8.20;52.30
80176;DHT22;75462;42.122;24.736;2024-02-15T06:44:37;8.20;52.00
80176;DHT22;75462;42.122;24.736;2024-02-15T06:47:05;8.20;52.10
80176;DHT22;75462;42.122;24.736;2024-02-15T06:49:32;8.20;52.20
80176;DHT22;75462;42.122;24.736;2024-02-15T06:51:58;8.30;52.10
80176;DHT22;75462;42.122;24.736;2024-02-15T06:54:27;8.30;52.20
80176;DHT22;75462;42.122;24.736;2024-02-15T06:56:53;8.30;52.10
80176;DHT22;75462;42.122;24.736;2024-02-15T06:59:20;8.30;51.90
80176;DHT22;75462;42.122;24.736;2024-02-15T07:01:51;8.30;52.00
80176;DHT22;75462;42.122;24.736;2024-02-15T07:04:18;8.50;51.60
80176;DHT22;75462;42.122;24.736;2024-02-15T07:06:44;8.50;51.70
80176;DHT22;75462;42.122;24.736;2024-02-15T07:09:13;8.50;51.50
80176;DHT22;75462;42.122;24.736;2024-02-15T07:11:40;8.50;51.50
80176;DHT22;75462;42.122;24.736;2024-02-15T07:14:06;8.60;51.30
80176;DHT22;75462;42.122;24.736;2024-02-15T07:16:33;8.60;51.30
80176;DHT22;75462;42.122;24.736;2024-02-15T07:18:59;8.70;51.10
80176;DHT22;75462;42.122;24.736;2024-02-15T07:21:25;8.70;51.00
80176;DHT22;75462;42.122;24.736;2024-02-15T07:23:53;8.70;50.90
80176;DHT22;75462;42.122;24.736;2024-02-15T07:26:20;8.70;50.80
80176;DHT22;75462;42.122;24.736;2024-02-15T07:28:51;8.70;51.00
80176;DHT22;75462;42.122;24.736;2024-02-15T07:31:19;8.70;50.90
80176;DHT22;75462;42.122;24.736;2024-02-15T07:33:50;8.80;50.80
80176;DHT22;75462;42.122;24.736;2024-02-15T07:36:20;8.80;50.50
80176;DHT22;75462;42.122;24.736;2024-02-15T07:38:47;9.00;50.10
80176;DHT22;75462;42.122;24.736;2024-02-15T07:41:15;9.00;49.80
80176;DHT22;75462;42.122;24.736;2024-02-15T07:43:41;8.80;50.10
80176;DHT22;75462;42.122;24.736;2024-02-15T07:46:06;8.80;50.20
80176;DHT22;75462;42.122;24.736;2024-02-15T07:48:33;8.70;50.30
80176;DHT22;75462;42.122;24.736;2024-02-15T07:50:58;8.70;50.80
80176;DHT22;75462;42.122;24.736;2024-02-15T07:53:24;8.90;50.20
80176;DHT22;75462;42.122;24.736;2024-02-15T07:55:50;9.00;50.50
80176;DHT22;75462;42.122;24.736;2024-02-15T07:58:16;9.20;49.40
80176;DHT22;75462;42.122;24.736;2024-02-15T08:00:45;9.10;49.20
80176;DHT22;75462;42.122;24.736;2024-02-15T08:03:11;9.20;49.10
80176;DHT22;75462;42.122;24.736;2024-02-15T08:05:37;9.20;49.20
80176;DHT22;75462;42.122;24.736;2024-02-15T08:08:03;9.30;48.90
80176;DHT22;75462;42.122;24.736;2024-02-15T08:10:29;9.20;48.80
80176;DHT22;75462;42.122;24.736;2024-02-15T08:12:55;9.00;49.30
80176;DHT22;75462;42.122;24.736;2024-02-15T08:15:23;9.00;49.20
80176;DHT22;75462;42.122;24.736;2024-02-15T08:17:49;9.00;49.50
80176;DHT22;75462;42.122;24.736;2024-02-15T08:20:16;9.10;49.60
80176;DHT22;75462;42.122;24.736;2024-02-15T08:22:47;9.30;49.10
80176;DHT22;75462;42.122;24.736;2024-02-15T08:25:13;9.30;49.10
80176;DHT22;75462;42.122;24.736;2024-02-15T08:27:42;9.10;49.00
80176;DHT22;75462;42.122;24.736;2024-02-15T08:30:11;9.20;49.20
80176;DHT22;75462;42.122;24.736;2024-02-15T08:32:40;9.30;49.10
80176;DHT22;75462;42.122;24.736;2024-02-15T08:35:11;9.50;48.60
80176;DHT22;75462;42.122;24.736;2024-02-15T08:37:38;9.40;48.20
80176;DHT22;75462;42.122;24.736;2024-02-15T08:40:05;9.50;48.50
80176;DHT22;75462;42.122;24.736;2024-02-15T08:42:42;9.50;48.40
80176;DHT22;75462;42.122;24.736;2024-02-15T08:45:08;9.60;48.10
80176;DHT22;75462;42.122;24.736;2024-02-15T08:47:38;9.50;48.20
80176;DHT22;75462;42.122;24.736;2024-02-15T08:50:05;9.50;48.40
80176;DHT22;75462;42.122;24.736;2024-02-15T08:52:31;9.50;48.40
80176;DHT22;75462;42.122;24.736;2024-02-15T08:54:57;9.60;48.20
80176;DHT22;75462;42.122;24.736;2024-02-15T08:57:25;9.70;48.60
80176;DHT22;75462;42.122;24.736;2024-02-15T08:59:52;9.70;48.20
80176;DHT22;75462;42.122;24.736;2024-02-15T09:02:18;9.80;47.90
80176;DHT22;75462;42.122;24.736;2024-02-15T09:04:44;9.90;47.80
80176;DHT22;75462;42.122;24.736;2024-02-15T09:07:10;9.90;47.40
80176;DHT22;75462;42.122;24.736;2024-02-15T09:09:36;9.90;47.90
80176;DHT22;75462;42.122;24.736;2024-02-15T09:12:05;9.90;47.40
80176;DHT22;75462;42.122;24.736;2024-02-15T09:14:36;9.90;47.70
80176;DHT22;75462;42.122;24.736;2024-02-15T09:17:04;10.10;47.30
80176;DHT22;75462;42.122;24.736;2024-02-15T09:19:34;10.00;47.50
80176;DHT22;75462;42.122;24.736;2024-02-15T09:22:00;10.10;47.10
80176;DHT22;75462;42.122;24.736;2024-02-15T09:24:26;10.20;46.80
80176;DHT22;75462;42.122;24.736;2024-02-15T09:26:52;10.30;46.30
80176;DHT22;75462;42.122;24.736;2024-02-15T09:29:19;10.40;46.20
80176;DHT22;75462;42.122;24.736;2024-02-15T09:31:47;10.20;45.80
80176;DHT22;75462;42.122;24.736;2024-02-15T09:34:13;10.10;46.20
80176;DHT22;75462;42.122;24.736;2024-02-15T09:36:39;10.20;46.70
80176;DHT22;75462;42.122;24.736;2024-02-15T09:39:04;10.40;46.00
80176;DHT22;75462;42.122;24.736;2024-02-15T09:41:31;10.50;46.00
80176;DHT22;75462;42.122;24.736;2024-02-15T09:43:59;10.50;46.00
80176;DHT22;75462;42.122;24.736;2024-02-15T09:46:27;10.50;45.60
80176;DHT22;75462;42.122;24.736;2024-02-15T09:48:56;10.50;47.10
80176;DHT22;75462;42.122;24.736;2024-02-15T09:51:29;10.50;45.90
80176;DHT22;75462;42.122;24.736;2024-02-15T09:53:57;10.50;46.00
80176;DHT22;75462;42.122;24.736;2024-02-15T09:56:26;10.50;46.00
80176;DHT22;75462;42.122;24.736;2024-02-15T09:58:54;10.50;45.80
80176;DHT22;75462;42.122;24.736;2024-02-15T10:01:23;10.50;45.80
80176;DHT22;75462;42.122;24.736;2024-02-15T10:03:52;10.60;45.70
80176;DHT22;75462;42.122;24.736;2024-02-15T10:06:19;10.70;45.90
80176;DHT22;75462;42.122;24.736;2024-02-15T10:08:45;10.60;46.00
80176;DHT22;75462;42.122;24.736;2024-02-15T10:11:12;10.80;47.10
80176;DHT22;75462;42.122;24.736;2024-02-15T10:13:39;10.80;45.80
80176;DHT22;75462;42.122;24.736;2024-02-15T10:16:18;11.10;45.40
80176;DHT22;75462;42.122;24.736;2024-02-15T10:18:47;11.10;44.30
80176;DHT22;75462;42.122;24.736;2024-02-15T10:21:28;11.00;44.90
80176;DHT22;75462;42.122;24.736;2024-02-15T10:24:08;11.00;45.00
80176;DHT22;75462;42.122;24.736;2024-02-15T10:26:36;11.10;44.90
80176;DHT22;75462;42.122;24.736;2024-02-15T10:29:06;11.20;45.00
80176;DHT22;75462;42.122;24.736;2024-02-15T10:31:35;11.40;43.80
80176;DHT22;75462;42.122;24.736;2024-02-15T10:34:05;11.30;43.80
80176;DHT22;75462;42.122;24.736;2024-02-15T10:36:32;11.30;43.90
80176;DHT22;75462;42.122;24.736;2024-02-15T10:39:18;11.60;43.90
80176;DHT22;75462;42.122;24.736;2024-02-15T10:41:48;12.00;42.80
80176;DHT22;75462;42.122;24.736;2024-02-15T10:44:24;12.40;41.40
80176;DHT22;75462;42.122;24.736;2024-02-15T10:46:52;12.20;41.90
80176;DHT22;75462;42.122;24.736;2024-02-15T10:49:19;12.30;41.60
80176;DHT22;75462;42.122;24.736;2024-02-15T10:52:09;12.40;40.90
80176;DHT22;75462;42.122;24.736;2024-02-15T10:57:05;12.30;41.10
80176;DHT22;75462;42.122;24.736;2024-02-15T10:59:35;12.30;40.70
80176;DHT22;75462;42.122;24.736;2024-02-15T11:04:52;12.20;41.30
80176;DHT22;75462;42.122;24.736;2024-02-15T11:07:24;12.20;41.00
80176;DHT22;75462;42.122;24.736;2024-02-15T11:09:50;12.20;40.90
80176;DHT22;75462;42.122;24.736;2024-02-15T11:12:17;12.40;40.90
80176;DHT22;75462;42.122;24.736;2024-02-15T11:14:46;12.70;40.50
80176;DHT22;75462;42.122;24.736;2024-02-15T11:20:29;12.70;40.20
80176;DHT22;75462;42.122;24.736;2024-02-15T11:22:58;13.10;39.10
80176;DHT22;75462;42.122;24.736;2024-02-15T11:25:37;13.80;37.40
80176;DHT22;75462;42.122;24.736;2024-02-15T11:30:48;16.60;31.50
80176;DHT22;75462;42.122;24.736;2024-02-15T11:36:09;18.30;28.40
80176;DHT22;75462;42.122;24.736;2024-02-15T11:38:37;19.50;26.30
80176;DHT22;75462;42.122;24.736;2024-02-15T11:41:07;20.00;25.60
80176;DHT22;75462;42.122;24.736;2024-02-15T11:46:18;20.00;24.90
80176;DHT22;75462;42.122;24.736;2024-02-15T11:48:45;19.20;26.10
80176;DHT22;75462;42.122;24.736;2024-02-15T11:54:07;21.40;23.40
80176;DHT22;75462;42.122;24.736;2024-02-15T11:59:30;23.40;21.00
80176;DHT22;75462;42.122;24.736;2024-02-15T12:02:08;23.20;20.80
80176;DHT22;75462;42.122;24.736;2024-02-15T12:04:52;22.90;20.80
80176;DHT22;75462;42.122;24.736;2024-02-15T12:07:36;22.20;21.70
80176;DHT22;75462;42.122;24.736;2024-02-15T12:10:40;21.40;22.40
80176;DHT22;75462;42.122;24.736;2024-02-15T12:13:24;22.30;21.90
80176;DHT22;75462;42.122;24.736;2024-02-15T12:16:08;22.50;21.40
80176;DHT22;75462;42.122;24.736;2024-02-15T12:18:53;22.20;21.80
80176;DHT22;75462;42.122;24.736;2024-02-15T12:21:22;23.00;20.80
80176;DHT22;75462;42.122;24.736;2024-02-15T12:23:49;23.70;19.80
80176;DHT22;75462;42.122;24.736;2024-02-15T12:26:21;24.20;19.60
80176;DHT22;75462;42.122;24.736;2024-02-15T12:28:53;25.50;18.00
80176;DHT22;75462;42.122;24.736;2024-02-15T12:31:22;25.70;17.60
80176;DHT22;75462;42.122;24.736;2024-02-15T12:34:03;26.10;17.10
80176;DHT22;75462;42.122;24.736;2024-02-15T12:36:36;24.80;18.10
80176;DHT22;75462;42.122;24.736;2024-02-15T12:39:06;24.60;18.40
80176;DHT22;75462;42.122;24.736;2024-02-15T12:41:48;24.90;18.00
80176;DHT22;75462;42.122;24.736;2024-02-15T12:44:18;23.90;18.90
80176;DHT22;75462;42.122;24.736;2024-02-15T12:46:54;23.70;19.50
80176;DHT22;75462;42.122;24.736;2024-02-15T12:51:54;25.20;17.50
80176;DHT22;75462;42.122;24.736;2024-02-15T12:54:39;26.20;16.50
80176;DHT22;75462;42.122;24.736;2024-02-15T12:57:08;26.70;16.40
80176;DHT22;75462;42.122;24.736;2024-02-15T12:59:39;27.30;15.90
80176;DHT22;75462;42.122;24.736;2024-02-15T13:02:05;26.00;16.70
80176;DHT22;75462;42.122;24.736;2024-02-15T13:04:30;25.80;16.80
80176;DHT22;75462;42.122;24.736;2024-02-15T13:06:56;26.10;16.30
80176;DHT22;75462;42.122;24.736;2024-02-15T13:09:22;26.40;15.90
80176;DHT22;75462;42.122;24.736;2024-02-15T13:11:48;26.30;15.80
80176;DHT22;75462;42.122;24.736;2024-02-15T13:14:15;25.30;17.10
80176;DHT22;75462;42.122;24.736;2024-02-15T13:16:41;24.30;18.40
80176;DHT22;75462;42.122;24.736;2024-02-15T13:19:08;24.50;17.70
80176;DHT22;75462;42.122;24.736;2024-02-15T13:21:34;25.10;17.60
80176;DHT22;75462;42.122;24.736;2024-02-15T13:24:00;26.50;16.00
80176;DHT22;75462;42.122;24.736;2024-02-15T13:26:30;27.90;15.20
80176;DHT22;75462;42.122;24.736;2024-02-15T13:28:56;27.90;15.00
80176;DHT22;75462;42.122;24.736;2024-02-15T13:31:22;27.60;15.00
80176;DHT22;75462;42.122;24.736;2024-02-15T13:33:48;27.30;15.00
80176;DHT22;75462;42.122;24.736;2024-02-15T13:36:14;26.90;15.40
80176;DHT22;75462;42.122;24.736;2024-02-15T13:38:41;27.50;15.00
80176;DHT22;75462;42.122;24.736;2024-02-15T13:41:07;28.20;14.50
80176;DHT22;75462;42.122;24.736;2024-02-15T13:43:34;28.50;13.90
80176;DHT22;75462;42.122;24.736;2024-02-15T13:45:59;28.40;13.90
80176;DHT22;75462;42.122;24.736;2024-02-15T13:48:29;27.80;14.70
80176;DHT22;75462;42.122;24.736;2024-02-15T13:50:55;28.30;15.10
80176;DHT22;75462;42.122;24.736;2024-02-15T13:53:21;28.10;13.90
80176;DHT22;75462;42.122;24.736;2024-02-15T13:55:47;27.30;13.90
80176;DHT22;75462;42.122;24.736;2024-02-15T13:58:13;26.80;14.60
80176;DHT22;75462;42.122;24.736;2024-02-15T14:00:40;26.80;14.70
80176;DHT22;75462;42.122;24.736;2024-02-15T14:03:07;26.10;15.00
80176;DHT22;75462;42.122;24.736;2024-02-15T14:05:36;26.50;15.40
80176;DHT22;75462;42.122;24.736;2024-02-15T14:08:03;25.10;15.50
80176;DHT22;75462;42.122;24.736;2024-02-15T14:10:32;23.60;17.40
80176;DHT22;75462;42.122;24.736;2024-02-15T14:12:59;23.00;19.00
80176;DHT22;75462;42.122;24.736;2024-02-15T14:15:25;22.30;19.40
80176;DHT22;75462;42.122;24.736;2024-02-15T14:17:51;21.70;20.50
80176;DHT22;75462;42.122;24.736;2024-02-15T14:20:17;21.00;21.20
80176;DHT22;75462;42.122;24.736;2024-02-15T14:22:48;21.10;21.60
80176;DHT22;75462;42.122;24.736;2024-02-15T14:25:24;21.10;21.40
80176;DHT22;75462;42.122;24.736;2024-02-15T14:27:53;20.70;21.60
80176;DHT22;75462;42.122;24.736;2024-02-15T14:30:19;20.00;22.60
80176;DHT22;75462;42.122;24.736;2024-02-15T14:33:03;19.30;23.60
80176;DHT22;75462;42.122;24.736;2024-02-15T14:35:33;18.70;24.50
80176;DHT22;75462;42.122;24.736;2024-02-15T14:38:03;18.00;25.40
80176;DHT22;75462;42.122;24.736;2024-02-15T14:40:33;17.50;26.30
80176;DHT22;75462;42.122;24.736;2024-02-15T14:42:59;17.20;27.10
80176;DHT22;75462;42.122;24.736;2024-02-15T14:45:25;16.90;27.80
80176;DHT22;75462;42.122;24.736;2024-02-15T14:47:52;16.50;28.50
80176;DHT22;75462;42.122;24.736;2024-02-15T14:50:17;16.50;28.60
80176;DHT22;75462;42.122;24.736;2024-02-15T14:52:46;16.40;28.80
80176;DHT22;75462;42.122;24.736;2024-02-15T14:55:13;16.50;28.60
80176;DHT22;75462;42.122;24.736;2024-02-15T14:57:39;16.30;29.10
80176;DHT22;75462;42.122;24.736;2024-02-15T15:00:05;15.90;29.90
80176;DHT22;75462;42.122;24.736;2024-02-15T15:02:37;15.40;31.00
80176;DHT22;75462;42.122;24.736;2024-02-15T15:05:03;15.30;31.40
80176;DHT22;75462;42.122;24.736;2024-02-15T15:07:47;15.10;31.60
80176;DHT22;75462;42.122;24.736;2024-02-15T15:10:31;14.80;32.40
80176;DHT22;75462;42.122;24.736;2024-02-15T15:13:15;14.80;32.90
80176;DHT22;75462;42.122;24.736;2024-02-15T15:15:41;14.80;32.80
80176;DHT22;75462;42.122;24.736;2024-02-15T15:18:07;14.90;32.60
80176;DHT22;75462;42.122;24.736;2024-02-15T15:20:36;15.00;32.00
80176;DHT22;75462;42.122;24.736;2024-02-15T15:23:03;14.70;33.00
80176;DHT22;75462;42.122;24.736;2024-02-15T15:25:30;14.40;33.40
80176;DHT22;75462;42.122;24.736;2024-02-15T15:27:56;14.20;34.00
80176;DHT22;75462;42.122;24.736;2024-02-15T15:30:22;14.20;33.90
80176;DHT22;75462;42.122;24.736;2024-02-15T15:32:49;14.00;34.30
80176;DHT22;75462;42.122;24.736;2024-02-15T15:35:16;13.90;34.70
80176;DHT22;75462;42.122;24.736;2024-02-15T15:37:44;13.80;35.00
80176;DHT22;75462;42.122;24.736;2024-02-15T15:40:11;13.90;35.20
80176;DHT22;75462;42.122;24.736;2024-02-15T15:42:41;14.00;34.70
80176;DHT22;75462;42.122;24.736;2024-02-15T15:45:07;13.80;35.30
80176;DHT22;75462;42.122;24.736;2024-02-15T15:47:34;13.70;35.60
80176;DHT22;75462;42.122;24.736;2024-02-15T15:50:00;13.70;35.80
80176;DHT22;75462;42.122;24.736;2024-02-15T15:52:26;13.80;35.80
80176;DHT22;75462;42.122;24.736;2024-02-15T15:54:55;13.90;35.80
80176;DHT22;75462;42.122;24.736;2024-02-15T15:57:21;13.70;36.30